Time;durP1;ratioP1;P1;durP2;ratioP2;P2;SDS_P1;SDS_P2;PMS_P1;PMS_P2;Temp;Humidity;BMP_temperature;BMP_pressure;BME280_temperature;BME280_humidity;BME280_pressure;Samples;Min_cycle;Max_cycle;Signal;HPM_P1;HPM_P2
2023/03/06 00:00:38;;;;;;;5.57;2.60;;;;;;;-148.88;80.31;75966.13;5119830;27;20027;-85
2023/03/06 00:03:04;;;;;;;4.88;2.35;;;;;;;-148.88;80.75;75984.41;5119816;27;20023;-85
2023/03/06 00:05:29;;;;;;;6.22;2.40;;;;;;;-148.88;80.32;75992.53;5120097;27;20026;-84
2023/03/06 00:07:55;;;;;;;7.35;2.90;;;;;;;-148.88;80.72;76000.66;5121308;27;20484;-85
2023/03/06 00:10:27;;;;;;;5.22;2.25;;;;;;;-148.88;79.76;75962.06;5138567;27;20027;-84
2023/03/06 00:12:54;;;;;;;6.32;2.75;;;;;;;-148.88;78.80;75939.72;5119467;27;20054;-85
2023/03/06 00:15:20;;;;;;;4.00;2.05;;;;;;;-148.88;79.76;75968.16;5119867;27;20501;-85
2023/03/06 00:17:46;;;;;;;4.82;2.50;;;;;;;-148.88;80.82;75990.50;5137260;27;20079;-85
2023/03/06 00:20:12;;;;;;;4.97;2.38;;;;;;;-148.88;81.31;76008.78;5118457;27;20114;-85
2023/03/06 00:22:38;;;;;;;5.00;2.15;;;;;;;-148.88;80.35;75968.16;5118355;27;20019;-84
2023/03/06 00:25:04;;;;;;;6.43;2.80;;;;;;;-148.88;79.98;75968.16;5118581;27;20015;-84
2023/03/06 00:27:31;;;;;;;5.05;2.55;;;;;;;-148.88;80.60;75964.09;5118821;27;20023;-85
2023/03/06 00:29:57;;;;;;;4.40;2.63;;;;;;;-148.88;80.38;75972.22;5118783;27;20119;-84
2023/03/06 00:32:23;;;;;;;9.50;2.80;;;;;;;-148.88;81.42;75992.53;5137612;27;20477;-85
2023/03/06 00:34:50;;;;;;;7.50;2.90;;;;;;;-148.88;82.91;75996.59;5119231;27;20023;-85
2023/03/06 00:37:16;;;;;;;7.32;2.85;;;;;;;-148.88;81.21;75964.09;5119653;27;20370;-86
2023/03/06 00:39:41;;;;;;;4.75;2.92;;;;;;;-148.88;82.27;75980.34;5123329;27;20037;-86
2023/03/06 00:42:06;;;;;;;6.65;2.90;;;;;;;-148.88;83.23;75996.59;5122427;27;20011;-85
2023/03/06 00:44:33;;;;;;;4.45;2.45;;;;;;;-148.88;83.45;76006.75;5137461;27;20030;-85
2023/03/06 00:46:58;;;;;;;7.18;3.30;;;;;;;-148.88;84.22;75996.59;5137404;27;20030;-85
2023/03/06 00:49:23;;;;;;;7.45;3.00;;;;;;;-148.88;84.66;76004.72;5137628;27;20031;-85
2023/03/06 00:51:49;;;;;;;5.65;2.58;;;;;;;-148.88;83.21;75964.09;5118322;27;20038;-85
2023/03/06 00:54:14;;;;;;;5.75;2.95;;;;;;;-148.88;82.54;75955.97;5118260;27;20110;-85
2023/03/06 00:56:39;;;;;;;5.97;3.05;;;;;;;-148.88;84.85;75986.44;5136421;27;20023;-85
2023/03/06 00:59:05;;;;;;;6.97;3.30;;;;;;;-148.88;83.65;75968.16;5136764;27;20079;-84
2023/03/06 01:01:30;;;;;;;5.05;2.92;;;;;;;-148.88;83.26;75955.97;5118157;27;20107;-85
2023/03/06 01:03:55;;;;;;;6.93;3.20;;;;;;;-148.88;83.27;75949.88;5117865;27;20018;-84
2023/03/06 01:06:21;;;;;;;5.28;2.80;;;;;;;-148.88;84.37;75982.38;5118360;27;20473;-84
2023/03/06 01:08:46;;;;;;;6.10;3.03;;;;;;;-148.88;85.20;75980.34;5136706;27;20027;-85
2023/03/06 01:11:11;;;;;;;5.53;3.25;;;;;;;-148.88;86.52;75992.53;5118270;27;20035;-85
2023/03/06 01:13:36;;;;;;;7.93;3.40;;;;;;;-148.88;86.96;75992.53;5136809;27;20031;-85
2023/03/06 01:16:11;;;;;;;7.05;3.95;;;;;;;-148.88;86.88;75976.28;5118186;27;20504;-85
2023/03/06 01:18:37;;;;;;;13.25;3.58;;;;;;;-148.88;87.65;76010.81;5119360;27;20023;-85
2023/03/06 01:21:04;;;;;;;9.85;3.85;;;;;;;-148.88;88.01;75996.59;5118449;27;20050;-85
2023/03/06 01:23:29;;;;;;;11.98;3.58;;;;;;;-148.88;87.73;76006.75;5118044;27;20022;-85
2023/03/06 01:25:55;;;;;;;6.85;3.42;;;;;;;-148.88;86.94;75992.53;5118306;27;20027;-85
2023/03/06 01:28:20;;;;;;;6.82;3.53;;;;;;;-148.88;86.37;75976.28;5119368;27;20061;-84
2023/03/06 01:30:45;;;;;;;7.35;3.80;;;;;;;-148.88;87.75;75990.50;5136359;27;20042;-84
2023/03/06 01:33:11;;;;;;;9.73;4.03;;;;;;;-148.88;87.80;76016.91;5117471;27;20120;-85
2023/03/06 01:35:39;;;;;;;8.18;4.40;;;;;;;-148.88;88.65;76012.84;5117580;27;20388;-85
2023/03/06 01:38:05;;;;;;;7.00;4.32;;;;;;;-148.88;88.04;76008.78;5117670;27;20114;-85
2023/03/06 01:40:32;;;;;;;8.80;3.97;;;;;;;-148.88;87.39;76002.69;5136158;27;20027;-85
2023/03/06 01:42:57;;;;;;;7.35;3.80;;;;;;;-148.88;87.60;76000.66;5117937;27;20023;-84
2023/03/06 01:45:22;;;;;;;7.03;3.72;;;;;;;-148.88;86.04;75976.28;5117723;27;20115;-84
2023/03/06 01:47:48;;;;;;;8.80;4.03;;;;;;;-148.88;88.64;76037.22;5117766;27;20027;-85
2023/03/06 01:50:13;;;;;;;7.90;4.05;;;;;;;-148.88;88.39;76035.19;5118937;27;20263;-84
2023/03/06 01:52:48;;;;;;;10.27;4.25;;;;;;;-148.88;88.11;76002.69;5118227;27;20027;-85
2023/03/06 01:55:21;;;;;;;6.60;3.95;;;;;;;-148.88;87.69;75992.53;5118037;27;20027;-85
2023/03/06 01:57:54;;;;;;;8.73;4.27;;;;;;;-148.88;88.65;76035.19;5118303;27;20019;-84
2023/03/06 02:00:23;;;;;;;6.63;4.20;;;;;;;-148.88;89.19;76033.16;5135680;27;20287;-85
2023/03/06 02:02:52;;;;;;;7.28;3.95;;;;;;;-148.88;87.64;75976.28;5135471;27;20118;-85
2023/03/06 02:05:18;;;;;;;8.95;4.65;;;;;;;-148.88;86.79;75958.00;5117308;27;20406;-85
2023/03/06 02:07:45;;;;;;;8.57;4.45;;;;;;;-148.88;87.08;75986.44;5136084;27;20102;-84
2023/03/06 02:10:11;;;;;;;8.57;3.85;;;;;;;-148.88;86.40;75955.97;5118127;27;20027;-85
2023/03/06 02:12:39;;;;;;;9.35;4.32;;;;;;;-148.88;87.31;75968.16;5120184;27;20030;-85
2023/03/06 02:15:05;;;;;;;9.65;4.70;;;;;;;-148.88;86.24;75943.78;5119457;27;20015;-86
2023/03/06 02:17:33;;;;;;;11.52;5.38;;;;;;;-148.88;87.77;75984.41;5121754;27;20041;-85
2023/03/06 02:20:09;;;;;;;10.32;4.95;;;;;;;-148.88;86.64;75955.97;5120904;27;20541;-85
2023/03/06 02:23:00;;;;;;;12.15;5.72;;;;;;;-148.88;85.57;75935.66;5139629;27;20023;-85
2023/03/06 02:25:48;;;;;;;15.55;5.13;;;;;;;-148.88;85.04;75925.50;5117602;27;20035;-85
2023/03/06 02:28:17;;;;;;;8.88;4.07;;;;;;;-148.88;85.07;75917.38;5137382;27;20137;-85
2023/03/06 02:30:44;;;;;;;8.57;4.10;;;;;;;-148.88;85.03;75903.16;5137091;27;20023;-85
2023/03/06 02:33:15;;;;;;;9.35;4.63;;;;;;;-148.88;84.14;75907.22;5119256;27;20015;-85
2023/03/06 02:35:54;;;;;;;9.13;4.57;;;;;;;-148.88;85.54;75915.34;5117777;27;20019;-85
2023/03/06 02:38:22;;;;;;;8.55;4.30;;;;;;;-148.88;86.01;75911.28;5134844;27;20362;-85
2023/03/06 02:40:50;;;;;;;10.40;4.80;;;;;;;-148.88;87.67;75980.34;5135230;27;20015;-85
2023/03/06 02:43:21;;;;;;;8.75;4.90;;;;;;;-148.88;87.51;75953.94;5135859;27;20041;-86
2023/03/06 02:49:08;;;;;;;11.23;5.07;;;;;;;-148.88;88.48;75990.50;5136266;27;20057;-85
2023/03/06 02:51:33;;;;;;;14.15;5.68;;;;;;;-148.88;89.34;75996.59;5118091;28;20485;-85
2023/03/06 02:53:59;;;;;;;13.88;5.82;;;;;;;-148.88;89.14;75984.41;5137153;27;20032;-85
2023/03/06 02:56:24;;;;;;;11.18;6.18;;;;;;;-148.88;90.35;75992.53;5118991;28;20354;-85
2023/03/06 02:58:50;;;;;;;10.68;5.32;;;;;;;-148.88;89.66;75974.25;5136612;27;20031;-84
2023/03/06 03:01:17;;;;;;;12.48;6.35;;;;;;;-148.88;89.10;75970.19;5136619;27;20091;-85
2023/03/06 03:03:42;;;;;;;14.85;5.88;;;;;;;-148.88;89.04;75962.06;5118161;28;20027;-85
2023/03/06 03:06:07;;;;;;;13.07;6.55;;;;;;;-148.88;90.67;76023.00;5118774;28;20471;-85
2023/03/06 03:08:33;;;;;;;10.98;5.75;;;;;;;-148.88;90.07;75988.47;5118639;28;20041;-85
2023/03/06 03:11:01;;;;;;;12.50;5.65;;;;;;;-148.88;88.91;75976.28;5117225;27;20546;-85
2023/03/06 03:13:27;;;;;;;12.35;6.05;;;;;;;-148.88;89.57;75980.34;5119260;27;20027;-85
2023/03/06 03:16:06;;;;;;;13.88;6.68;;;;;;;-148.88;89.40;75988.47;5138892;27;20175;-85
2023/03/06 03:18:32;;;;;;;11.98;6.18;;;;;;;-148.88;89.07;75962.06;5120556;27;20023;-85
2023/03/06 03:20:57;;;;;;;13.77;5.97;;;;;;;-148.88;89.02;75960.03;5120607;27;20021;-85
2023/03/06 03:23:23;;;;;;;17.13;6.75;;;;;;;-148.88;89.58;75955.97;5121190;27;20390;-85
2023/03/06 03:25:49;;;;;;;11.88;5.93;;;;;;;-148.88;88.70;75947.84;5121897;27;20015;-84
2023/03/06 03:28:15;;;;;;;11.90;5.43;;;;;;;-148.88;87.58;75919.41;5120943;27;20027;-85
2023/03/06 03:30:41;;;;;;;13.15;6.30;;;;;;;-148.88;87.67;75931.59;5139761;27;20042;-85
2023/03/06 03:33:06;;;;;;;14.38;7.00;;;;;;;-148.88;87.48;75915.34;5120754;27;20019;-85
2023/03/06 03:35:32;;;;;;;14.32;6.43;;;;;;;-148.88;88.41;75943.78;5120745;27;20394;-84
2023/03/06 03:37:57;;;;;;;14.85;6.32;;;;;;;-148.88;87.92;75915.34;5120089;27;20027;-85
2023/03/06 03:40:23;;;;;;;13.90;6.07;;;;;;;-148.88;88.21;75929.56;5121090;27;20023;-85
2023/03/06 03:42:48;;;;;;;15.90;6.38;;;;;;;-148.88;88.17;75915.34;5121025;27;20023;-84
2023/03/06 03:45:13;;;;;;;11.57;5.97;;;;;;;-148.88;88.53;75935.66;5121058;27;20030;-86
2023/03/06 03:47:39;;;;;;;14.90;6.30;;;;;;;-148.88;88.95;75960.03;5139198;27;20103;-85
2023/03/06 03:50:05;;;;;;;17.92;7.57;;;;;;;-148.88;87.92;75927.53;5121008;27;20019;-85
2023/03/06 03:52:31;;;;;;;12.93;6.00;;;;;;;-148.88;88.09;75923.47;5122653;27;20477;-85
2023/03/06 03:54:56;;;;;;;16.30;7.10;;;;;;;-148.88;87.99;75937.69;5121579;27;20023;-85
2023/03/06 03:57:21;;;;;;;16.15;7.05;;;;;;;-148.88;89.55;75949.88;5120844;27;20019;-85
2023/03/06 03:59:47;;;;;;;13.32;6.55;;;;;;;-148.88;89.14;75949.88;5120501;27;20025;-85
2023/03/06 04:02:14;;;;;;;15.30;6.78;;;;;;;-148.88;89.87;75955.97;5119996;27;20114;-85
2023/03/06 04:04:40;;;;;;;16.63;7.05;;;;;;;-148.88;89.49;75962.06;5138260;27;20031;-85
2023/03/06 04:07:05;;;;;;;14.20;6.38;;;;;;;-148.88;89.13;75947.84;5119797;27;20442;-86
2023/03/06 04:09:31;;;;;;;17.83;6.85;;;;;;;-148.88;89.37;75939.72;5139242;27;20023;-85
2023/03/06 04:11:56;;;;;;;18.80;7.45;;;;;;;-148.88;89.06;75931.59;5119572;27;20113;-85
2023/03/06 04:14:21;;;;;;;12.93;6.30;;;;;;;-148.88;87.99;75919.41;5137302;27;20031;-84
2023/03/06 04:16:46;;;;;;;15.90;6.60;;;;;;;-148.88;87.48;75907.22;5118811;27;20506;-84
2023/03/06 04:19:12;;;;;;;13.82;6.32;;;;;;;-148.88;87.72;75919.41;5137695;27;20019;-86
2023/03/06 04:21:37;;;;;;;13.98;6.88;;;;;;;-148.88;88.63;75935.66;5119127;27;20023;-86
2023/03/06 04:24:03;;;;;;;13.90;7.10;;;;;;;-148.88;88.51;75927.53;5136876;27;20027;-83
2023/03/06 04:26:28;;;;;;;15.90;6.43;;;;;;;-148.88;88.85;75939.72;5137515;27;20029;-84
2023/03/06 04:28:54;;;;;;;14.45;6.50;;;;;;;-148.88;89.03;75947.84;5119583;27;20043;-85
2023/03/06 04:31:20;;;;;;;15.32;6.85;;;;;;;-148.88;89.51;75949.88;5118734;27;20015;-83
2023/03/06 04:33:46;;;;;;;16.25;6.70;;;;;;;-148.88;90.43;75984.41;5118868;27;20030;-85
2023/03/06 04:36:30;;;;;;;13.07;6.22;;;;;;;-148.88;91.20;75978.31;5119076;27;20031;-86
2023/03/06 04:38:55;;;;;;;13.02;6.60;;;;;;;-148.88;91.41;75968.16;5118126;27;20083;-86
2023/03/06 04:41:21;;;;;;;15.88;6.95;;;;;;;-148.88;92.09;75964.09;5137332;27;20473;-88
2023/03/06 04:43:49;;;;;;;16.67;6.57;;;;;;;-148.88;91.26;75925.50;5140270;27;20034;-88
2023/03/06 04:46:14;;;;;;;19.92;7.30;;;;;;;-148.88;92.04;75964.09;5122118;27;20052;-88
2023/03/06 04:48:39;;;;;;;14.98;7.40;;;;;;;-148.88;92.56;75964.09;5123898;27;20023;-88
2023/03/06 04:51:04;;;;;;;20.23;7.80;;;;;;;-148.88;92.43;75943.78;5121580;27;20027;-89
2023/03/06 04:53:32;;;;;;;16.73;7.72;;;;;;;-148.88;92.35;75935.66;5139811;27;20106;-89
2023/03/06 04:55:58;;;;;;;15.88;7.22;;;;;;;-148.88;92.95;75937.69;5140214;27;20034;-88
2023/03/06 04:58:24;;;;;;;17.17;7.78;;;;;;;-148.88;92.38;75947.84;5139580;27;20031;-88
2023/03/06 05:00:50;;;;;;;16.55;7.25;;;;;;;-148.88;91.07;75895.03;5137030;27;20103;-90
2023/03/06 05:05:43;;;;;;;16.88;7.85;;;;;;;-148.88;92.73;75931.59;5074345;28;20100;-79
2023/03/06 05:08:16;;;;;;;17.63;7.75;;;;;;;-148.88;91.84;75923.47;5075236;28;20471;-77
2023/03/06 05:10:42;;;;;;;16.00;8.05;;;;;;;-148.88;92.11;75927.53;5073935;28;20115;-77
2023/03/06 05:13:07;;;;;;;19.80;8.38;;;;;;;-148.88;91.66;75923.47;5075466;28;20034;-77
2023/03/06 05:15:33;;;;;;;17.80;7.88;;;;;;;-148.88;92.24;75911.28;5073832;28;20024;-77
2023/03/06 05:17:58;;;;;;;19.52;8.68;;;;;;;-148.88;91.95;75913.31;5073708;28;20024;-78
2023/03/06 05:20:23;;;;;;;18.40;7.78;;;;;;;-148.88;92.23;75921.44;5075486;28;20029;-79
2023/03/06 05:22:49;;;;;;;17.67;8.35;;;;;;;-148.88;92.34;75919.41;5078225;28;20368;-79
2023/03/06 05:25:14;;;;;;;19.38;8.25;;;;;;;-148.88;92.79;75925.50;5076343;28;20028;-79
2023/03/06 05:27:40;;;;;;;16.02;8.70;;;;;;;-148.88;92.34;75929.56;5077180;28;20028;-79
2023/03/06 05:30:07;;;;;;;19.08;7.93;;;;;;;-148.88;91.94;75911.28;5078631;28;20029;-78
2023/03/06 05:32:32;;;;;;;17.70;8.00;;;;;;;-148.88;91.77;75919.41;5077298;28;20020;-79
2023/03/06 05:34:58;;;;;;;15.93;7.18;;;;;;;-148.88;92.70;75917.38;5077956;28;20428;-79
2023/03/06 05:37:23;;;;;;;20.40;8.27;;;;;;;-148.88;91.95;75890.97;5076965;28;20025;-80
2023/03/06 05:39:49;;;;;;;17.98;7.90;;;;;;;-148.88;90.42;75878.78;5078894;28;20538;-78
2023/03/06 05:42:14;;;;;;;19.35;8.57;;;;;;;-148.88;90.93;75882.84;5078168;28;20032;-79
2023/03/06 05:44:40;;;;;;;16.92;8.50;;;;;;;-148.88;92.11;75882.84;5078492;28;20032;-80
2023/03/06 05:47:07;;;;;;;19.17;9.18;;;;;;;-148.88;91.33;75880.81;5076111;28;20043;-79
2023/03/06 05:49:34;;;;;;;16.02;7.75;;;;;;;-148.88;91.94;75893.00;5077780;28;20047;-79
2023/03/06 05:52:02;;;;;;;23.27;9.20;;;;;;;-148.88;91.46;75876.75;5077300;28;20051;-79
2023/03/06 05:54:28;;;;;;;16.80;7.68;;;;;;;-148.88;91.34;75872.69;5077899;28;20021;-79
2023/03/06 05:56:56;;;;;;;18.63;8.35;;;;;;;-148.88;91.61;75874.72;5078424;28;20111;-79
2023/03/06 05:59:22;;;;;;;14.05;7.15;;;;;;;-148.88;92.36;75899.09;5076198;28;20059;-79
2023/03/06 06:01:47;;;;;;;19.30;8.82;;;;;;;-148.88;91.24;75858.47;5076064;28;20025;-79
2023/03/06 06:04:12;;;;;;;24.83;8.63;;;;;;;-148.88;91.83;75886.91;5075511;28;20501;-78
2023/03/06 06:06:38;;;;;;;17.13;8.77;;;;;;;-148.88;91.62;75858.47;5077264;28;20110;-79
2023/03/06 06:09:03;;;;;;;15.52;8.07;;;;;;;-148.88;91.21;75884.88;5076672;28;20025;-79
2023/03/06 06:11:28;;;;;;;17.08;9.18;;;;;;;-148.88;92.08;75888.94;5076156;28;20021;-79
2023/03/06 06:13:53;;;;;;;19.10;8.85;;;;;;;-148.88;91.96;75899.09;5078350;28;20032;-78
2023/03/06 06:16:19;;;;;;;21.33;9.27;;;;;;;-148.88;92.03;75862.53;5076059;28;20028;-79
2023/03/06 06:18:45;;;;;;;25.05;9.40;;;;;;;-148.88;92.21;75886.91;5076511;28;20078;-78
2023/03/06 06:21:11;;;;;;;19.77;9.82;;;;;;;-148.88;91.90;75850.34;5077424;28;20024;-79
2023/03/06 06:23:37;;;;;;;21.83;9.63;;;;;;;-148.88;91.04;75850.34;5076693;28;20478;-79
2023/03/06 06:26:05;;;;;;;19.90;9.82;;;;;;;-148.88;92.16;75886.91;5077185;28;20028;-80
2023/03/06 06:28:32;;;;;;;20.58;9.80;;;;;;;-148.88;91.04;75850.34;5077435;28;20059;-79
2023/03/06 06:30:58;;;;;;;28.60;11.55;;;;;;;-148.88;92.39;75858.47;5078426;28;20141;-79
2023/03/06 06:33:23;;;;;;;22.38;10.95;;;;;;;-148.88;92.18;75874.72;5078068;28;20056;-80
2023/03/06 06:35:49;;;;;;;21.40;11.25;;;;;;;-148.88;92.39;75890.97;5077639;28;20020;-79
2023/03/06 06:38:14;;;;;;;26.17;10.52;;;;;;;-148.88;93.12;75872.69;5076716;28;20025;-79
2023/03/06 06:40:39;;;;;;;23.63;11.10;;;;;;;-148.88;91.70;75864.56;5075510;28;20020;-79
2023/03/06 06:43:04;;;;;;;19.05;9.88;;;;;;;-148.88;92.43;75878.78;5077816;28;20027;-79
2023/03/06 06:45:30;;;;;;;25.23;11.02;;;;;;;-148.88;91.53;75852.38;5076440;28;20089;-79
2023/03/06 06:47:55;;;;;;;20.83;9.88;;;;;;;-148.88;92.19;75858.47;5077545;28;20027;-79
2023/03/06 06:50:20;;;;;;;20.13;10.18;;;;;;;-148.88;91.66;75864.56;5077460;28;20048;-80
2023/03/06 06:52:46;;;;;;;20.55;10.18;;;;;;;-148.88;91.41;75825.97;5077389;28;20024;-80
2023/03/06 06:55:13;;;;;;;20.95;10.00;;;;;;;-148.88;91.70;75844.25;5077636;28;20422;-79
2023/03/06 06:57:39;;;;;;;18.23;9.98;;;;;;;-148.88;91.70;75852.38;5077551;28;20103;-78
2023/03/06 07:00:05;;;;;;;20.70;9.02;;;;;;;-148.88;92.12;75846.28;5076722;28;20024;-79
2023/03/06 07:02:31;;;;;;;20.45;10.00;;;;;;;-148.88;92.05;75858.47;5077934;28;20024;-79
2023/03/06 07:04:57;;;;;;;20.35;10.27;;;;;;;-148.88;91.96;75848.31;5075777;28;20047;-79
2023/03/06 07:07:22;;;;;;;28.65;11.30;;;;;;;-148.88;91.04;75850.34;5076063;28;20115;-80
2023/03/06 07:09:47;;;;;;;21.13;11.13;;;;;;;-148.88;93.78;75876.75;5075783;28;20060;-80
2023/03/06 07:12:13;;;;;;;22.02;10.40;;;;;;;-148.88;91.85;75836.13;5077241;28;20070;-79
2023/03/06 07:14:40;;;;;;;22.40;10.65;;;;;;;-148.88;92.13;75858.47;5076378;28;20016;-80
2023/03/06 07:17:05;;;;;;;21.33;10.40;;;;;;;-148.88;92.57;75882.84;5077860;28;20394;-78
2023/03/06 07:19:31;;;;;;;21.92;10.05;;;;;;;-148.88;93.08;75876.75;5076967;28;20020;-78
2023/03/06 07:21:57;;;;;;;23.05;10.35;;;;;;;-148.88;92.51;75842.22;5077279;28;20438;-79
2023/03/06 07:24:22;;;;;;;27.92;11.63;;;;;;;-148.88;93.79;75905.19;5077945;28;20090;-79
2023/03/06 07:26:47;;;;;;;23.90;11.60;;;;;;;-148.88;94.27;75880.81;5077440;28;20032;-79
2023/03/06 07:29:13;;;;;;;23.48;11.48;;;;;;;-148.88;92.58;75832.06;5077986;28;20028;-80
2023/03/06 07:31:38;;;;;;;24.02;11.15;;;;;;;-148.88;93.09;75830.03;5077062;28;20429;-78
2023/03/06 07:34:03;;;;;;;28.35;11.55;;;;;;;-148.88;93.82;75890.97;5077494;28;20020;-80
2023/03/06 07:36:29;;;;;;;22.33;10.55;;;;;;;-148.88;93.87;75846.28;5077816;28;20107;-79
2023/03/06 07:38:54;;;;;;;20.83;10.68;;;;;;;-148.88;93.97;75866.59;5077166;28;20029;-79
2023/03/06 07:41:19;;;;;;;24.80;10.68;;;;;;;-148.88;92.56;75823.94;5077207;28;20052;-78
2023/03/06 07:43:45;;;;;;;24.38;11.30;;;;;;;-148.88;93.35;75866.59;5077028;28;20039;-79
2023/03/06 07:46:11;;;;;;;21.45;10.95;;;;;;;-148.88;93.02;75834.09;5077019;28;20028;-80
2023/03/06 07:48:37;;;;;;;20.55;9.45;;;;;;;-148.88;93.17;75838.16;5088336;28;20028;-79
2023/03/06 07:51:05;;;;;;;22.60;11.43;;;;;;;-148.88;93.31;75852.38;5089816;28;20084;-79
2023/03/06 07:53:31;;;;;;;24.45;10.85;;;;;;;-148.88;93.33;75842.22;5088923;28;20032;-78
2023/03/06 07:55:57;;;;;;;22.95;11.05;;;;;;;-148.88;93.88;75825.97;5076216;28;20119;-79
2023/03/06 07:58:22;;;;;;;24.13;11.60;;;;;;;-148.88;93.23;75848.31;5077468;28;20025;-79
2023/03/06 08:00:48;;;;;;;22.65;10.98;;;;;;;-148.88;95.18;75870.66;5080699;28;20115;-80
2023/03/06 08:03:13;;;;;;;19.67;9.88;;;;;;;-148.88;94.52;75868.63;5079955;28;20032;-79
2023/03/06 08:05:39;;;;;;;20.48;10.27;;;;;;;-148.88;93.05;75828.00;5080239;28;20402;-79
2023/03/06 08:08:04;;;;;;;24.23;10.05;;;;;;;-148.88;95.04;75919.41;5080748;28;20021;-79
2023/03/06 08:10:30;;;;;;;24.77;10.77;;;;;;;-148.88;96.04;75890.97;5078868;28;20137;-79
2023/03/06 08:12:55;;;;;;;21.45;9.55;;;;;;;-148.88;95.40;75874.72;5080284;28;20040;-79
2023/03/06 08:15:20;;;;;;;26.08;10.68;;;;;;;-148.88;95.56;75903.16;5080938;28;20025;-79
2023/03/06 08:17:46;;;;;;;22.27;11.27;;;;;;;-148.88;94.86;75870.66;5080412;28;20103;-79
2023/03/06 08:20:13;;;;;;;24.58;10.85;;;;;;;-148.88;95.43;75907.22;5078865;28;20020;-79
2023/03/06 08:22:38;;;;;;;20.55;10.10;;;;;;;-148.88;94.70;75860.50;5080445;28;20035;-79
2023/03/06 08:25:05;;;;;;;24.08;11.15;;;;;;;-148.88;95.47;75888.94;5079880;28;20024;-80
2023/03/06 08:27:32;;;;;;;22.67;10.13;;;;;;;-148.88;95.08;75858.47;5080228;28;20024;-80
2023/03/06 08:29:58;;;;;;;26.25;12.07;;;;;;;-148.88;94.78;75862.53;5080063;28;20051;-79
2023/03/06 08:32:24;;;;;;;24.83;10.27;;;;;;;-148.88;95.65;75870.66;5080558;28;20020;-80
2023/03/06 08:34:50;;;;;;;27.35;11.82;;;;;;;-148.88;96.84;75913.31;5081082;28;20066;-79
2023/03/06 08:37:15;;;;;;;24.92;11.35;;;;;;;-148.88;95.86;75874.72;5081368;28;20029;-80
2023/03/06 08:39:40;;;;;;;29.63;10.00;;;;;;;-148.88;96.03;75878.78;5080950;28;20020;-79
2023/03/06 08:42:06;;;;;;;27.42;10.50;;;;;;;-148.88;95.21;75866.59;5079013;28;20075;-79
2023/03/06 08:44:33;;;;;;;23.77;9.45;;;;;;;-148.88;95.74;75876.75;5079126;28;20043;-79
2023/03/06 08:46:58;;;;;;;23.90;10.50;;;;;;;-148.88;97.32;75931.59;5081014;28;20060;-80
2023/03/06 08:49:23;;;;;;;21.80;9.15;;;;;;;-148.88;97.47;75888.94;5079875;28;20023;-79
2023/03/06 08:51:49;;;;;;;21.48;9.90;;;;;;;-148.88;97.45;75919.41;5078031;28;20020;-79
2023/03/06 08:54:14;;;;;;;23.33;10.27;;;;;;;-148.88;96.84;75888.94;5079623;28;20032;-79
2023/03/06 08:56:39;;;;;;;20.38;10.27;;;;;;;-148.88;95.52;75872.69;5079484;28;20024;-80
2023/03/06 08:59:05;;;;;;;28.45;10.60;;;;;;;-148.88;96.64;75901.13;5079473;28;20474;-80
2023/03/06 09:01:33;;;;;;;26.08;10.13;;;;;;;-148.88;96.46;75882.84;5079862;28;20410;-80
2023/03/06 09:04:02;;;;;;;24.88;10.85;;;;;;;-148.88;96.53;75874.72;5078406;28;20459;-79
2023/03/06 09:06:31;;;;;;;23.65;10.15;;;;;;;-148.88;94.97;75842.22;5077898;28;20027;-78
2023/03/06 09:08:56;;;;;;;20.65;9.63;;;;;;;-148.88;95.06;75834.09;5079660;28;20477;-78
2023/03/06 09:11:24;;;;;;;16.13;7.72;;;;;;;-148.88;96.82;75903.16;5079088;28;20095;-79
2023/03/06 09:13:50;;;;;;;22.05;9.48;;;;;;;-148.88;96.08;75858.47;5080042;28;20092;-80
2023/03/06 09:16:15;;;;;;;17.55;8.13;;;;;;;-148.88;94.97;75880.81;5079911;28;20530;-79
2023/03/06 09:18:41;;;;;;;16.05;7.93;;;;;;;-148.88;96.04;75907.22;5079076;28;20051;-79
2023/03/06 09:21:07;;;;;;;15.95;8.82;;;;;;;-148.88;97.25;75923.47;5079475;28;20410;-79
2023/03/06 09:23:33;;;;;;;18.88;8.43;;;;;;;-148.88;96.35;75878.78;5079870;28;20403;-79
2023/03/06 09:25:59;;;;;;;18.02;7.70;;;;;;;-148.88;96.09;75880.81;5078636;28;20501;-78
2023/03/06 09:28:24;;;;;;;17.02;7.75;;;;;;;-148.88;95.71;75886.91;5078612;28;20434;-79
2023/03/06 09:30:50;;;;;;;15.73;7.45;;;;;;;-148.88;98.41;75955.97;5078303;28;20107;-79
2023/03/06 09:33:16;;;;;;;17.73;8.00;;;;;;;-148.88;97.45;75890.97;5078831;28;20029;-79
2023/03/06 09:36:01;;;;;;;17.15;8.13;;;;;;;-148.88;97.39;75890.97;5078623;28;20103;-79
2023/03/06 09:38:27;;;;;;;22.75;9.18;;;;;;;-148.88;95.80;75846.28;5078632;28;20021;-78
2023/03/06 09:41:01;;;;;;;19.58;8.85;;;;;;;-148.88;95.40;75846.28;5078239;28;20387;-79
2023/03/06 09:43:38;;;;;;;16.30;7.90;;;;;;;-148.88;97.49;75884.88;5079199;28;20028;-78
2023/03/06 09:46:22;;;;;;;16.85;7.95;;;;;;;-148.88;97.25;75884.88;5079105;28;20360;-78
2023/03/06 09:49:25;;;;;;;18.98;9.13;;;;;;;-148.88;98.52;75931.59;5080357;28;20020;-78
2023/03/06 09:52:05;;;;;;;20.13;9.13;;;;;;;-148.88;99.28;75951.91;5048563;28;20041;-77
2023/03/06 09:54:44;;;;;;;20.75;9.25;;;;;;;-148.88;99.21;75911.28;5080274;28;20081;-78
2023/03/06 09:57:35;;;;;;;20.27;9.18;;;;;;;-148.88;98.62;75897.06;5079433;28;20486;-78
2023/03/06 10:00:11;;;;;;;19.02;9.82;;;;;;;-148.88;99.12;75903.16;5079666;28;20029;-79
2023/03/06 10:02:40;;;;;;;19.08;10.43;;;;;;;-148.88;99.28;75915.34;5078647;28;20020;-79
2023/03/06 10:05:40;;;;;;;21.77;10.65;;;;;;;-148.88;99.13;75915.34;5078229;28;20029;-79
2023/03/06 10:08:18;;;;;;;26.02;11.40;;;;;;;-148.88;100.00;75941.75;5045570;28;20366;-79
2023/03/06 10:10:52;;;;;;;27.48;12.57;;;;;;;-148.88;100.00;75984.41;5077952;28;20025;-78
2023/03/06 10:13:29;;;;;;;25.17;11.07;;;;;;;-148.88;100.00;75988.47;5076779;28;20017;-78
2023/03/06 10:16:06;;;;;;;19.83;10.15;;;;;;;-148.88;100.00;75980.34;5078520;28;20028;-78
2023/03/06 10:18:31;;;;;;;23.23;10.70;;;;;;;-148.88;100.00;75943.78;5076860;28;20029;-79
2023/03/06 10:21:01;;;;;;;20.77;9.50;;;;;;;-148.88;99.91;75949.88;5078800;28;20036;-79
2023/03/06 10:23:59;;;;;;;19.00;9.88;;;;;;;-148.88;99.15;75907.22;5080047;28;20103;-77
2023/03/06 10:26:31;;;;;;;23.73;9.77;;;;;;;-148.88;98.52;75888.94;5078537;28;20035;-79
2023/03/06 10:29:09;;;;;;;21.15;10.00;;;;;;;-148.88;100.00;75931.59;5078076;28;20017;-77
2023/03/06 10:31:36;;;;;;;21.52;10.48;;;;;;;-148.88;100.00;75874.72;5080486;28;20072;-79
2023/03/06 10:34:21;;;;;;;23.80;10.75;;;;;;;-148.88;99.51;75842.22;5078134;28;20020;-79
2023/03/06 10:36:46;;;;;;;22.75;10.07;;;;;;;-148.88;98.02;75838.16;5080926;28;20029;-79
2023/03/06 10:39:15;;;;;;;18.17;9.95;;;;;;;-148.88;97.96;75838.16;5075838;28;20028;-79
2023/03/06 10:41:41;;;;;;;17.92;8.77;;;;;;;-148.88;97.92;75852.38;5077373;28;20084;-79
2023/03/06 10:44:07;;;;;;;18.20;8.52;;;;;;;-148.88;97.66;75870.66;5076014;28;20040;-79
2023/03/06 10:46:35;;;;;;;18.02;8.23;;;;;;;-148.88;98.41;75858.47;5077468;28;20031;-78
2023/03/06 10:49:21;;;;;;;15.73;7.28;;;;;;;-148.88;96.27;75856.44;5076032;28;20395;-79
2023/03/06 10:51:57;;;;;;;14.57;7.47;;;;;;;-148.88;97.39;75899.09;5077343;28;20024;-79
2023/03/06 10:54:23;;;;;;;17.83;8.63;;;;;;;-148.88;97.00;75921.44;5077049;28;20111;-79
2023/03/06 10:56:49;;;;;;;14.90;7.03;;;;;;;-148.88;96.48;75899.09;5076396;28;20121;-78
2023/03/06 10:59:21;;;;;;;13.98;7.80;;;;;;;-148.88;97.66;75895.03;5079061;28;20025;-78
2023/03/06 11:02:12;;;;;;;19.02;7.93;;;;;;;-148.88;97.03;75907.22;5077218;28;20104;-78
2023/03/06 11:04:40;;;;;;;13.88;6.78;;;;;;;-148.88;96.11;75888.94;5081879;28;20032;-79
2023/03/06 11:07:13;;;;;;;13.80;6.88;;;;;;;-148.88;95.55;75870.66;5091713;28;20093;-78
2023/03/06 11:09:40;;;;;;;16.02;7.32;;;;;;;-148.88;95.13;75882.84;5092540;28;20028;-78
2023/03/06 11:12:33;;;;;;;13.48;6.15;;;;;;;-148.88;94.82;75858.47;5081320;28;20028;-79
2023/03/06 11:15:13;;;;;;;18.50;7.03;;;;;;;-148.88;94.92;75834.09;5071067;28;20603;-79
2023/03/06 11:17:58;;;;;;;10.63;5.80;;;;;;;-148.88;95.67;75801.59;5077035;28;20073;-79